Time;durP1;ratioP1;P1;durP2;ratioP2;P2;SDS_P1;SDS_P2;PMS_P1;PMS_P2;Temp;Humidity;BMP_temperature;BMP_pressure;BME280_temperature;BME280_humidity;BME280_pressure;Samples;Min_cycle;Max_cycle;Signal;HPM_P1;HPM_P2
2021/03/24 00:01:05;;;;;;;22.80;12.07;;;;;;;6.96;62.73;101020.69;4851449;28;97815;-76
2021/03/24 00:03:31;;;;;;;20.40;11.83;;;;;;;6.98;62.54;101026.75;4892069;28;97527;-76
2021/03/24 00:05:56;;;;;;;23.57;12.73;;;;;;;7.00;62.90;101034.56;4857230;28;101258;-77
2021/03/24 00:08:22;;;;;;;22.97;12.87;;;;;;;6.95;62.42;101034.63;4857786;28;98003;-82
2021/03/24 00:10:49;;;;;;;23.90;12.80;;;;;;;7.00;62.34;101030.19;4876380;28;98218;-76
2021/03/24 00:13:15;;;;;;;20.95;10.85;;;;;;;6.98;62.25;101028.47;4890826;28;100859;-76
2021/03/24 00:15:40;;;;;;;20.40;10.80;;;;;;;7.03;62.18;101030.19;4871911;28;98353;-77
2021/03/24 00:18:07;;;;;;;18.33;10.07;;;;;;;7.01;62.40;101023.22;4856419;28;96712;-76
2021/03/24 00:20:37;;;;;;;18.07;10.50;;;;;;;7.05;62.22;101024.09;4856355;28;96958;-76
2021/03/24 00:23:03;;;;;;;22.75;11.30;;;;;;;6.98;62.39;101021.53;4870292;28;97685;-76
2021/03/24 00:25:29;;;;;;;23.93;12.17;;;;;;;6.88;62.89;101030.31;4865470;28;101246;-76
2021/03/24 00:27:56;;;;;;;19.53;11.47;;;;;;;6.87;62.81;101017.28;4891572;28;96971;-76
2021/03/24 00:30:29;;;;;;;22.03;12.43;;;;;;;6.85;62.96;101014.66;4875876;28;97012;-81
2021/03/24 00:32:54;;;;;;;19.80;11.57;;;;;;;6.86;62.92;101013.78;4872442;28;101420;-76
2021/03/24 00:35:21;;;;;;;26.43;13.07;;;;;;;6.82;62.86;101009.47;4849877;28;101701;-76
2021/03/24 00:37:47;;;;;;;23.97;13.70;;;;;;;6.83;63.38;101012.94;4888191;28;96589;-77
2021/03/24 00:40:21;;;;;;;25.20;12.83;;;;;;;6.79;63.61;101017.31;4866129;28;96951;-76
2021/03/24 00:42:47;;;;;;;23.60;13.37;;;;;;;6.90;63.36;101006.81;4871304;28;98552;-76
2021/03/24 00:45:13;;;;;;;24.83;13.00;;;;;;;6.85;63.52;101013.81;4841078;28;101332;-77
2021/03/24 00:47:39;;;;;;;24.23;14.03;;;;;;;6.92;63.13;101007.66;4856208;28;96975;-78
2021/03/24 00:50:06;;;;;;;19.50;13.18;;;;;;;6.94;63.41;101013.72;4872660;28;97735;-76
2021/03/24 00:52:33;;;;;;;22.67;13.50;;;;;;;6.85;63.48;100995.53;4884265;28;97904;-77
2021/03/24 00:54:58;;;;;;;26.57;14.13;;;;;;;6.86;63.42;101013.78;4840761;28;101425;-76
2021/03/24 00:57:24;;;;;;;20.17;12.65;;;;;;;6.91;63.12;101004.19;4856672;28;96683;-83
2021/03/24 00:59:50;;;;;;;19.90;11.93;;;;;;;6.98;63.21;101011.09;4874489;28;97291;-77
2021/03/24 01:02:15;;;;;;;22.27;13.40;;;;;;;6.93;63.07;101002.44;4858564;28;97974;-77
2021/03/24 01:04:41;;;;;;;20.33;13.67;;;;;;;6.94;63.67;101005.91;4855376;28;101440;-77
2021/03/24 01:07:10;;;;;;;22.37;12.53;;;;;;;6.91;63.40;101006.78;4872500;28;96736;-76
2021/03/24 01:09:35;;;;;;;23.80;13.10;;;;;;;6.99;63.43;100998.91;4851740;28;97478;-79
2021/03/24 01:12:01;;;;;;;22.43;12.87;;;;;;;6.92;63.07;100994.59;4834817;29;101745;-76
2021/03/24 01:14:27;;;;;;;21.83;12.50;;;;;;;6.93;63.09;101005.03;4846891;28;98083;-82
2021/03/24 01:16:53;;;;;;;24.33;13.33;;;;;;;7.02;63.47;101004.09;4872656;28;96947;-76
2021/03/24 01:19:18;;;;;;;22.93;12.60;;;;;;;6.95;63.25;100997.19;4874467;28;97178;-77
2021/03/24 01:21:44;;;;;;;19.07;11.93;;;;;;;6.94;63.69;100992.84;4876970;28;101445;-77
2021/03/24 01:24:09;;;;;;;23.23;12.75;;;;;;;6.96;63.42;100988.50;4875025;28;98054;-77
2021/03/24 01:26:35;;;;;;;21.17;12.83;;;;;;;6.97;63.31;100990.22;4846379;28;97082;-77
2021/03/24 01:29:01;;;;;;;24.13;14.03;;;;;;;6.98;62.93;100994.53;4866507;28;97197;-76
2021/03/24 01:31:29;;;;;;;20.47;12.73;;;;;;;6.99;63.37;100985.84;4871747;28;101449;-82
2021/03/24 01:33:58;;;;;;;22.70;13.38;;;;;;;7.05;63.04;101000.59;4869521;28;101937;-76
2021/03/24 01:36:24;;;;;;;22.50;12.50;;;;;;;7.01;63.11;100994.50;4878245;28;97151;-77
2021/03/24 01:38:51;;;;;;;26.00;13.35;;;;;;;6.97;63.24;100985.84;4877460;28;97007;-76
2021/03/24 01:41:17;;;;;;;22.33;13.13;;;;;;;7.02;63.13;100996.28;4857138;28;100856;-76
2021/03/24 01:43:42;;;;;;;30.00;15.50;;;;;;;6.97;62.88;100985.84;4858578;28;101245;-76
2021/03/24 01:46:17;;;;;;;26.13;14.70;;;;;;;7.01;63.01;100979.75;4863786;28;97517;-76
2021/03/24 01:48:48;;;;;;;25.50;14.83;;;;;;;7.04;62.89;100984.06;4865429;28;97423;-76
2021/03/24 01:51:14;;;;;;;24.42;14.65;;;;;;;7.05;62.86;100990.16;4859260;28;101383;-77
2021/03/24 01:53:40;;;;;;;23.97;14.60;;;;;;;6.95;62.83;100992.84;4842741;28;101464;-76
2021/03/24 01:56:08;;;;;;;25.50;14.95;;;;;;;6.96;62.70;100991.97;4863031;28;96638;-76
2021/03/24 01:58:35;;;;;;;26.23;16.50;;;;;;;6.95;63.08;100992.84;4871164;28;96885;-76
2021/03/24 02:01:02;;;;;;;30.20;17.13;;;;;;;7.00;62.59;100996.25;4858988;28;101677;-76
2021/03/24 02:03:31;;;;;;;28.40;15.87;;;;;;;7.04;62.77;101002.34;4859362;28;100772;-80
2021/03/24 02:05:57;;;;;;;22.77;14.43;;;;;;;7.06;62.42;101002.31;4878476;28;97366;-77
2021/03/24 02:08:30;;;;;;;29.53;15.63;;;;;;;7.04;62.64;101002.34;4863580;28;96949;-76
2021/03/24 02:11:06;;;;;;;27.53;15.97;;;;;;;6.99;62.86;101001.53;4831986;28;101349;-76
2021/03/24 02:13:55;;;;;;;26.80;14.63;;;;;;;7.01;62.33;100998.03;4870310;28;100972;-77
2021/03/24 02:16:24;;;;;;;24.30;15.07;;;;;;;6.95;62.66;100998.06;4858978;28;98033;-76
2021/03/24 02:18:51;;;;;;;26.13;14.43;;;;;;;6.94;62.63;100996.31;4857317;28;97022;-76
2021/03/24 02:21:24;;;;;;;24.17;14.20;;;;;;;6.96;62.51;100998.94;4871953;28;97645;-76
2021/03/24 02:23:54;;;;;;;21.87;13.43;;;;;;;6.96;62.62;100993.72;4869355;28;101500;-76
2021/03/24 02:26:39;;;;;;;25.23;14.70;;;;;;;6.97;62.92;100998.91;4876065;28;96923;-76
2021/03/24 02:29:06;;;;;;;23.33;14.38;;;;;;;6.95;63.06;101003.28;4858453;28;97271;-76
2021/03/24 02:31:33;;;;;;;25.70;14.73;;;;;;;6.92;62.82;100992.88;4874701;28;100558;-77
2021/03/24 02:34:03;;;;;;;25.67;14.70;;;;;;;6.90;63.13;100986.81;4877464;28;98100;-76
2021/03/24 02:36:29;;;;;;;24.33;14.07;;;;;;;6.91;62.86;100993.75;4876521;28;97834;-82
2021/03/24 02:38:57;;;;;;;22.83;13.77;;;;;;;6.90;62.90;100991.16;4876396;28;98328;-76
2021/03/24 02:41:24;;;;;;;20.75;12.98;;;;;;;6.86;62.93;100992.03;4864360;28;98067;-76
2021/03/24 02:43:50;;;;;;;22.92;13.82;;;;;;;6.79;63.09;100986.00;4849434;28;101426;-76
2021/03/24 02:46:17;;;;;;;22.13;13.33;;;;;;;6.84;62.83;100988.59;4863718;28;97123;-77
2021/03/24 02:48:43;;;;;;;23.17;14.37;;;;;;;6.75;63.37;100994.75;4864779;28;97183;-76
2021/03/24 02:51:12;;;;;;;20.40;13.50;;;;;;;6.75;63.02;100995.63;4871478;28;98496;-77
2021/03/24 02:53:39;;;;;;;23.43;14.37;;;;;;;6.71;63.46;100991.28;4857834;28;101794;-76
2021/03/24 02:56:07;;;;;;;23.00;13.67;;;;;;;6.78;63.06;100990.38;4836294;28;97175;-76
2021/03/24 02:58:34;;;;;;;23.53;13.87;;;;;;;6.73;63.55;100993.91;4876319;28;96951;-76
2021/03/24 03:01:02;;;;;;;25.33;14.13;;;;;;;6.71;63.79;100991.28;4870156;28;101802;-76
2021/03/24 03:03:30;;;;;;;22.70;13.87;;;;;;;6.75;63.50;100998.22;4870443;28;101091;-82
2021/03/24 03:05:57;;;;;;;24.37;12.97;;;;;;;6.79;63.13;100992.09;4858107;28;97300;-76
2021/03/24 03:08:29;;;;;;;25.27;14.00;;;;;;;6.71;63.45;100998.25;4842270;28;96996;-76
2021/03/24 03:11:05;;;;;;;25.17;14.30;;;;;;;6.68;64.05;101001.75;4857877;28;101501;-76
2021/03/24 03:13:34;;;;;;;21.33;13.67;;;;;;;6.66;64.12;101002.63;4860703;28;101037;-82
2021/03/24 03:16:42;;;;;;;22.03;13.37;;;;;;;6.65;64.33;100999.16;4876974;28;97045;-76
2021/03/24 03:19:31;;;;;;;21.03;12.87;;;;;;;6.69;64.18;101000.00;4853596;28;97015;-76
2021/03/24 03:22:02;;;;;;;24.60;13.00;;;;;;;6.62;64.12;100995.72;4874072;28;98482;-76
2021/03/24 03:24:35;;;;;;;23.65;13.60;;;;;;;6.64;63.95;100988.75;4892256;28;97846;-82
2021/03/24 03:27:02;;;;;;;21.17;13.63;;;;;;;6.65;64.14;100991.34;4846587;28;96811;-76
2021/03/24 03:29:29;;;;;;;21.10;13.63;;;;;;;6.62;64.28;100987.88;4857373;28;97201;-81
2021/03/24 03:31:54;;;;;;;22.03;12.97;;;;;;;6.58;64.43;100990.50;4857184;28;101534;-77
2021/03/24 03:34:24;;;;;;;22.70;13.77;;;;;;;6.60;64.37;100995.69;4857621;28;101081;-76
2021/03/24 03:36:53;;;;;;;24.47;13.57;;;;;;;6.54;64.67;100990.53;4873115;28;96748;-76
2021/03/24 03:39:25;;;;;;;22.07;13.33;;;;;;;6.68;64.44;100993.06;4872485;28;97164;-77
2021/03/24 03:41:52;;;;;;;20.00;13.63;;;;;;;6.68;64.10;100995.66;4882671;28;98506;-77
2021/03/24 03:44:18;;;;;;;23.73;14.43;;;;;;;6.68;64.19;100990.44;4876822;28;101535;-77
2021/03/24 03:46:50;;;;;;;21.07;13.83;;;;;;;6.74;64.25;100995.63;4866389;28;97050;-76
2021/03/24 03:49:16;;;;;;;28.08;17.40;;;;;;;6.76;64.07;101004.31;4861734;28;97271;-76
2021/03/24 03:52:19;;;;;;;28.50;18.27;;;;;;;6.79;64.09;100994.69;4891069;28;97932;-77
2021/03/24 03:54:50;;;;;;;28.07;18.10;;;;;;;6.82;63.96;100996.44;4859343;28;101050;-77
2021/03/24 03:57:27;;;;;;;29.45;17.88;;;;;;;6.78;63.63;100992.13;4882920;28;97070;-77
2021/03/24 03:59:57;;;;;;;24.70;16.77;;;;;;;6.76;64.14;100986.03;4867453;28;96931;-76
2021/03/24 04:02:31;;;;;;;21.90;14.90;;;;;;;6.75;64.20;100994.75;4855556;28;101547;-76
2021/03/24 04:05:02;;;;;;;22.80;14.50;;;;;;;6.70;64.43;100989.56;4841607;28;101243;-76
2021/03/24 04:08:04;;;;;;;22.17;13.85;;;;;;;6.68;64.88;100995.66;4844682;28;96890;-76
2021/03/24 04:10:32;;;;;;;22.75;14.82;;;;;;;6.65;64.90;100987.84;4856695;28;97487;-80
2021/03/24 04:12:59;;;;;;;26.27;14.90;;;;;;;6.67;64.78;100992.19;4852686;28;101148;-76
2021/03/24 04:15:25;;;;;;;23.00;14.93;;;;;;;6.58;65.35;100990.50;4839411;28;101150;-76
2021/03/24 04:17:56;;;;;;;25.10;13.80;;;;;;;6.58;65.27;100989.66;4875643;28;96816;-76
2021/03/24 04:20:23;;;;;;;22.85;14.48;;;;;;;6.62;64.62;100996.56;4870036;28;97203;-76
2021/03/24 04:22:51;;;;;;;22.80;13.10;;;;;;;6.58;65.06;100989.66;4856329;28;98196;-76
2021/03/24 04:25:39;;;;;;;23.67;13.37;;;;;;;6.73;64.85;100994.75;4875702;28;102045;-77
2021/03/24 04:28:06;;;;;;;23.37;14.20;;;;;;;6.66;64.64;101003.53;4873270;28;97140;-76
2021/03/24 04:30:40;;;;;;;30.33;14.70;;;;;;;6.70;64.64;100999.13;4856462;28;96955;-82
2021/03/24 04:33:06;;;;;;;24.70;15.00;;;;;;;6.70;64.69;100994.78;4861009;28;101014;-76
2021/03/24 04:35:32;;;;;;;24.47;14.53;;;;;;;6.69;65.00;101003.50;4875439;28;101193;-82
2021/03/24 04:38:00;;;;;;;23.87;14.33;;;;;;;6.75;64.56;101002.59;4855344;28;96803;-76
2021/03/24 04:40:35;;;;;;;26.33;15.43;;;;;;;6.72;65.05;101002.56;4872678;28;96883;-76
2021/03/24 04:43:14;;;;;;;24.03;15.20;;;;;;;6.70;64.76;101005.22;4866645;28;97997;-76
2021/03/24 04:45:45;;;;;;;25.70;14.37;;;;;;;6.70;64.82;101006.97;4864405;28;101598;-77
2021/03/24 04:48:35;;;;;;;23.00;14.17;;;;;;;6.68;64.97;101011.31;4848441;29;96721;-77
2021/03/24 04:51:09;;;;;;;19.00;12.80;;;;;;;6.74;64.94;101006.06;4871211;28;96825;-76
2021/03/24 04:53:41;;;;;;;23.83;14.67;;;;;;;6.74;65.16;101003.44;4868878;28;97760;-79
2021/03/24 04:56:09;;;;;;;28.00;14.93;;;;;;;6.79;64.92;101010.34;4863040;28;101505;-76
2021/03/24 04:58:45;;;;;;;27.97;15.47;;;;;;;6.76;64.85;101013.00;4873372;28;96717;-76
2021/03/24 05:01:31;;;;;;;24.23;14.47;;;;;;;6.74;65.04;101019.09;4862072;28;96871;-76
2021/03/24 05:04:02;;;;;;;24.50;14.40;;;;;;;6.78;64.96;101013.84;4871175;28;98332;-76
2021/03/24 05:06:40;;;;;;;21.33;13.93;;;;;;;6.78;65.17;101021.69;4851911;28;101251;-76
2021/03/24 05:09:07;;;;;;;22.93;13.90;;;;;;;6.72;65.13;101026.06;4868527;28;97999;-76
2021/03/24 05:11:39;;;;;;;24.13;14.87;;;;;;;6.71;65.45;101021.72;4856171;28;97378;-81
2021/03/24 05:14:27;;;;;;;25.20;14.87;;;;;;;6.74;65.45;101021.72;4856346;28;98083;-76
2021/03/24 05:17:19;;;;;;;21.53;14.57;;;;;;;6.71;65.85;101021.72;4887294;28;99906;-76
2021/03/24 05:19:46;;;;;;;22.43;13.50;;;;;;;6.77;65.61;101024.28;4892195;28;97233;-76
2021/03/24 05:22:29;;;;;;;20.37;14.00;;;;;;;6.77;65.61;101019.94;4891383;28;97072;-77
2021/03/24 05:25:03;;;;;;;21.77;13.80;;;;;;;6.73;65.60;101017.38;4858647;28;101129;-76
2021/03/24 05:27:33;;;;;;;22.73;14.70;;;;;;;6.77;65.49;101027.75;4875295;28;101109;-76
2021/03/24 05:30:08;;;;;;;42.17;24.80;;;;;;;6.74;65.60;101024.31;4875661;28;97264;-76
2021/03/24 05:32:40;;;;;;;51.93;31.37;;;;;;;6.68;65.91;101025.22;4859404;28;96843;-82
2021/03/24 05:35:22;;;;;;;47.87;27.20;;;;;;;6.73;65.45;101020.84;4884729;28;98665;-76
2021/03/24 05:37:48;;;;;;;30.23;19.45;;;;;;;6.75;65.72;101021.72;4869343;28;101797;-76
2021/03/24 05:40:35;;;;;;;28.37;17.80;;;;;;;6.75;65.97;101024.31;4867193;28;96700;-77
2021/03/24 05:43:27;;;;;;;27.90;16.73;;;;;;;6.71;66.08;101021.72;4851735;29;96820;-76
2021/03/24 05:46:06;;;;;;;25.85;16.27;;;;;;;6.68;66.36;101026.97;4863354;28;97867;-77
2021/03/24 05:48:57;;;;;;;26.83;16.50;;;;;;;6.73;66.27;101022.59;4864978;28;101246;-77
2021/03/24 05:51:37;;;;;;;22.03;13.70;;;;;;;6.83;65.82;101023.38;4886681;28;96979;-76
2021/03/24 05:54:17;;;;;;;20.80;14.40;;;;;;;6.85;65.61;101022.50;4872649;28;96858;-76
2021/03/24 05:56:59;;;;;;;21.53;15.27;;;;;;;6.75;66.04;101021.72;4855200;28;101553;-76
2021/03/24 05:59:51;;;;;;;20.60;14.80;;;;;;;6.67;65.99;101020.91;4871314;28;101628;-76
2021/03/24 06:02:28;;;;;;;22.48;14.73;;;;;;;6.75;66.24;101023.47;4871391;28;96630;-77
2021/03/24 06:04:59;;;;;;;24.80;14.17;;;;;;;6.77;65.79;101022.53;4870815;28;97474;-76
2021/03/24 06:07:24;;;;;;;25.02;16.17;;;;;;;6.80;66.00;101029.50;4868086;28;101601;-76
2021/03/24 06:10:02;;;;;;;28.47;15.70;;;;;;;6.86;65.82;101024.22;4870813;28;97943;-76
2021/03/24 06:12:46;;;;;;;23.13;14.73;;;;;;;6.90;65.40;101031.16;4878146;28;96938;-77
2021/03/24 06:15:24;;;;;;;20.33;14.00;;;;;;;6.89;65.53;101029.41;4861502;28;97319;-76
2021/03/24 06:17:56;;;;;;;24.20;15.33;;;;;;;6.97;65.76;101037.19;4883620;28;101782;-76
2021/03/24 06:20:44;;;;;;;22.92;14.57;;;;;;;6.99;65.50;101038.91;4877979;28;101371;-76
2021/03/24 06:23:23;;;;;;;21.90;15.23;;;;;;;6.94;65.45;101032.88;4877018;28;96936;-77
2021/03/24 06:26:33;;;;;;;23.33;15.00;;;;;;;6.96;65.42;101038.94;4874771;28;97327;-76
2021/03/24 06:29:01;;;;;;;22.80;14.93;;;;;;;6.91;65.90;101035.50;4863209;28;100896;-76
2021/03/24 06:31:39;;;;;;;22.47;13.67;;;;;;;6.94;65.77;101039.84;4871074;28;100815;-76
2021/03/24 06:34:26;;;;;;;21.27;14.23;;;;;;;6.92;66.10;101032.03;4866598;28;96920;-75
2021/03/24 06:37:13;;;;;;;24.97;14.50;;;;;;;7.03;65.59;101034.53;4881751;28;96858;-76
2021/03/24 06:40:02;;;;;;;23.40;14.20;;;;;;;6.98;65.58;101036.31;4870615;28;98555;-81
2021/03/24 06:42:32;;;;;;;24.53;14.60;;;;;;;7.01;65.62;101031.97;4852325;28;100567;-79
2021/03/24 06:45:26;;;;;;;21.43;13.93;;;;;;;6.99;65.88;101043.28;4879842;28;96980;-76
2021/03/24 06:48:19;;;;;;;19.87;13.17;;;;;;;7.03;65.60;101039.75;4872746;28;97072;-76
2021/03/24 06:51:05;;;;;;;20.87;14.60;;;;;;;6.97;65.50;101047.63;4840158;28;101313;-77
2021/03/24 06:53:40;;;;;;;26.03;15.43;;;;;;;6.94;65.96;101047.66;4854580;28;98410;-77
2021/03/24 06:56:14;;;;;;;21.83;14.43;;;;;;;6.99;65.66;101053.72;4870641;28;97118;-80
2021/03/24 06:59:18;;;;;;;26.57;15.27;;;;;;;6.97;65.70;101056.34;4860586;28;97273;-77
2021/03/24 07:02:02;;;;;;;21.63;14.00;;;;;;;7.08;65.21;101061.47;4869524;28;101602;-79
2021/03/24 07:05:06;;;;;;;22.53;13.87;;;;;;;7.17;65.16;101064.00;4860475;28;98132;-77
2021/03/24 07:07:56;;;;;;;27.67;16.83;;;;;;;7.19;65.40;101067.47;4854375;28;97231;-81
2021/03/24 07:10:43;;;;;;;21.17;15.07;;;;;;;7.24;65.26;101065.72;4872081;28;97285;-76
2021/03/24 07:13:27;;;;;;;26.87;15.23;;;;;;;7.28;64.97;101063.06;4843586;29;101647;-80
2021/03/24 07:16:12;;;;;;;24.25;15.15;;;;;;;7.29;64.65;101068.25;4844899;28;101774;-76
2021/03/24 07:19:32;;;;;;;22.13;15.17;;;;;;;7.36;64.61;101072.56;4854093;28;96989;-78
2021/03/24 07:22:33;;;;;;;26.40;15.53;;;;;;;7.41;64.71;101064.69;4831848;29;97420;-78
2021/03/24 07:25:01;;;;;;;27.00;16.00;;;;;;;7.44;64.23;101068.13;4866788;28;98016;-76
2021/03/24 07:27:41;;;;;;;24.25;16.60;;;;;;;7.43;64.49;101068.16;4840323;28;100208;-76
2021/03/24 07:30:16;;;;;;;27.67;16.53;;;;;;;7.36;64.39;101059.50;4842192;28;96737;-77
2021/03/24 07:33:03;;;;;;;28.38;17.67;;;;;;;7.40;64.17;101066.44;4874340;28;96846;-77
2021/03/24 07:36:02;;;;;;;25.38;16.50;;;;;;;7.37;64.37;101066.47;4876384;28;101610;-76
2021/03/24 07:38:50;;;;;;;24.10;16.30;;;;;;;7.46;64.20;101070.72;4891978;28;102000;-76
2021/03/24 07:41:33;;;;;;;24.60;16.17;;;;;;;7.46;64.20;101068.13;4860731;28;97058;-78
2021/03/24 07:44:04;;;;;;;25.25;15.85;;;;;;;7.49;63.58;101065.47;4845282;29;97079;-75
2021/03/24 07:47:03;;;;;;;28.00;16.87;;;;;;;7.48;63.66;101068.97;4860735;28;100992;-76
2021/03/24 07:49:32;;;;;;;29.80;17.60;;;;;;;7.40;63.82;101068.19;4874523;28;101950;-76
2021/03/24 07:52:17;;;;;;;30.63;18.60;;;;;;;7.47;63.91;101075.91;4891317;28;97851;-76
2021/03/24 07:55:00;;;;;;;29.37;17.80;;;;;;;7.44;63.76;101072.47;4841217;28;96922;-76
2021/03/24 07:57:35;;;;;;;28.93;17.43;;;;;;;7.36;63.88;101067.34;4858549;28;101244;-76
2021/03/24 08:00:34;;;;;;;26.10;16.77;;;;;;;7.52;63.85;101078.50;4876396;28;98112;-76
2021/03/24 08:03:30;;;;;;;27.20;17.63;;;;;;;7.65;63.14;101071.41;4853475;28;97631;-77
2021/03/24 08:06:02;;;;;;;28.75;17.00;;;;;;;7.68;63.07;101074.00;4831009;28;97193;-76
2021/03/24 08:08:43;;;;;;;24.58;16.58;;;;;;;7.71;63.11;101067.00;4871292;28;101131;-76
2021/03/24 08:11:21;;;;;;;27.45;16.55;;;;;;;7.70;62.97;101067.88;4871914;28;101360;-80
2021/03/24 08:14:08;;;;;;;29.35;16.77;;;;;;;7.76;63.01;101064.31;4867911;28;96760;-77
2021/03/24 08:16:50;;;;;;;24.37;17.20;;;;;;;7.83;62.76;101067.75;4863195;28;96829;-76
2021/03/24 08:19:40;;;;;;;24.45;16.48;;;;;;;7.91;62.52;101073.75;4854915;28;101909;-78
2021/03/24 08:23:01;;;;;;;24.10;17.08;;;;;;;7.86;62.88;101072.94;4877558;28;101824;-80
2021/03/24 08:25:46;;;;;;;24.10;16.60;;;;;;;7.85;62.26;101074.72;4864666;28;97444;-77
2021/03/24 08:28:23;;;;;;;28.02;17.45;;;;;;;7.81;62.40;101083.44;4842531;28;97008;-76
2021/03/24 08:30:52;;;;;;;21.20;16.20;;;;;;;7.86;62.42;101076.44;4856261;28;98034;-76
2021/03/24 08:33:52;;;;;;;27.10;17.52;;;;;;;8.04;61.94;101079.72;4855329;28;101187;-75
2021/03/24 08:36:34;;;;;;;24.08;16.88;;;;;;;8.01;61.89;101078.00;4823891;28;96978;-77
2021/03/24 08:39:33;;;;;;;23.65;15.90;;;;;;;7.96;61.99;101082.41;4836356;28;97216;-78
2021/03/24 08:42:08;;;;;;;33.85;17.38;;;;;;;8.06;61.87;101080.56;4867722;28;100951;-76
2021/03/24 08:44:53;;;;;;;25.33;16.75;;;;;;;8.04;61.81;101084.94;4859937;28;101408;-76
2021/03/24 08:47:41;;;;;;;27.40;17.02;;;;;;;8.09;61.53;101077.91;4850079;28;97141;-77
2021/03/24 08:50:13;;;;;;;25.38;17.15;;;;;;;8.16;61.79;101087.41;4854124;28;97477;-79
2021/03/24 08:52:58;;;;;;;29.10;17.73;;;;;;;8.24;61.05;101080.34;4859539;28;98020;-80
2021/03/24 08:55:46;;;;;;;23.67;17.55;;;;;;;8.22;60.73;101086.47;4873266;28;101484;-77
2021/03/24 08:58:32;;;;;;;23.33;15.95;;;;;;;8.27;60.97;101082.91;4866965;28;96989;-77
2021/03/24 09:01:16;;;;;;;29.80;19.02;;;;;;;8.25;61.40;101076.84;4848709;28;97080;-77
2021/03/24 09:04:09;;;;;;;30.77;16.83;;;;;;;8.26;60.68;101073.34;4877303;28;101716;-81
2021/03/24 09:06:50;;;;;;;29.02;17.95;;;;;;;8.25;61.33;101076.84;4871221;28;99442;-76
2021/03/24 09:09:47;;;;;;;23.92;16.95;;;;;;;8.37;60.80;101074.06;4894612;28;96876;-77
2021/03/24 09:12:28;;;;;;;25.10;18.02;;;;;;;8.35;60.69;101073.22;4871022;28;96894;-77
2021/03/24 09:15:12;;;;;;;28.85;18.23;;;;;;;8.31;60.79;101070.66;4881684;28;101351;-77
2021/03/24 09:17:57;;;;;;;26.00;18.00;;;;;;;8.37;60.43;101068.81;4836992;28;101595;-78
2021/03/24 09:20:47;;;;;;;28.20;17.50;;;;;;;8.36;59.82;101072.34;4859693;28;96900;-80
2021/03/24 09:23:31;;;;;;;27.67;16.88;;;;;;;8.45;60.00;101067.91;4872443;28;96839;-78
2021/03/24 09:26:22;;;;;;;29.75;17.92;;;;;;;8.49;59.91;101061.72;4854442;28;99807;-80
2021/03/24 09:29:19;;;;;;;26.88;17.75;;;;;;;8.53;60.00;101058.22;4854182;28;99382;-79
2021/03/24 09:31:56;;;;;;;31.30;19.33;;;;;;;8.61;60.19;101066.81;4832703;28;97293;-81
2021/03/24 09:35:09;;;;;;;29.40;18.80;;;;;;;8.76;59.61;101063.97;4886102;28;97040;-80
2021/03/24 09:37:41;;;;;;;29.70;19.00;;;;;;;8.82;59.67;101057.78;4832880;28;98483;-80
2021/03/24 09:40:11;;;;;;;;;;;;;;;8.84;59.85;101051.63;4864142;28;99950;-79
2021/03/24 09:42:52;;;;;;;33.13;18.25;;;;;;;8.89;59.05;101053.31;4841486;29;97359;-79
2021/03/24 09:45:20;;;;;;;27.42;18.77;;;;;;;8.94;58.89;101038.41;4863555;28;97634;-79
2021/03/24 09:48:16;;;;;;;32.53;19.77;;;;;;;8.98;59.02;101043.53;4855803;28;101257;-79
2021/03/24 09:50:47;;;;;;;32.30;18.48;;;;;;;9.01;58.73;101032.16;4842213;28;101266;-85
2021/03/24 09:53:18;;;;;;;30.52;19.88;;;;;;;9.09;58.70;101032.91;4858573;28;96861;-78
2021/03/24 09:55:51;;;;;;;32.57;20.00;;;;;;;9.11;58.58;101044.22;4878439;28;96914;-78
2021/03/24 09:58:19;;;;;;;30.08;19.67;;;;;;;9.12;58.56;101037.22;4877095;28;97477;-78
2021/03/24 10:00:54;;;;;;;34.72;21.27;;;;;;;8.94;58.77;101041.88;4877782;28;101440;-78
2021/03/24 10:03:37;;;;;;;30.30;19.85;;;;;;;9.00;58.93;101044.41;4871045;28;96676;-82
2021/03/24 10:06:05;;;;;;;29.50;19.48;;;;;;;9.01;58.74;101047.88;4871598;28;96903;-82
2021/03/24 10:08:36;;;;;;;28.08;20.10;;;;;;;8.97;58.46;101048.81;4852961;28;101178;-81
2021/03/24 10:11:09;;;;;;;30.58;19.63;;;;;;;8.95;58.44;101042.72;4857176;28;101723;-82
2021/03/24 10:13:50;;;;;;;33.75;20.63;;;;;;;9.05;58.60;101042.56;4839271;28;97413;-81
2021/03/24 10:16:31;;;;;;;34.73;20.03;;;;;;;9.16;58.79;101036.28;4850951;28;96994;-81
2021/03/24 10:19:01;;;;;;;34.75;20.48;;;;;;;9.23;57.71;101041.41;4857622;28;98429;-81
2021/03/24 10:21:49;;;;;;;28.65;18.98;;;;;;;9.34;57.87;101038.59;4857473;28;101863;-81
2021/03/24 10:24:18;;;;;;;28.85;19.75;;;;;;;9.33;57.78;101036.00;4850049;29;97223;-81
2021/03/24 10:27:02;;;;;;;41.38;20.17;;;;;;;9.45;57.75;101038.38;4857803;28;97462;-81
2021/03/24 10:30:07;;;;;;;33.30;20.13;;;;;;;9.55;57.27;101037.34;4871534;28;97882;-81
2021/03/24 10:32:40;;;;;;;31.85;20.52;;;;;;;9.59;56.78;101030.28;4864549;28;98449;-81
2021/03/24 10:35:20;;;;;;;43.22;21.77;;;;;;;9.58;56.56;101018.09;4853038;28;97456;-81
2021/03/24 10:37:58;;;;;;;34.83;20.63;;;;;;;9.56;56.37;101017.25;4853511;28;97465;-81
2021/03/24 10:40:27;;;;;;;27.92;18.92;;;;;;;9.58;56.93;101020.69;4872710;28;98048;-82
2021/03/24 10:42:58;;;;;;;28.02;19.17;;;;;;;9.63;56.33;101026.69;4855503;28;98364;-82
2021/03/24 10:45:44;;;;;;;39.15;20.60;;;;;;;9.74;56.03;101023.00;4851727;28;97211;-82
2021/03/24 10:48:17;;;;;;;32.97;20.73;;;;;;;9.76;56.04;101017.72;4868758;28;96926;-82
2021/03/24 10:50:47;;;;;;;30.08;19.73;;;;;;;9.73;55.88;101018.63;4848177;28;102080;-81
2021/03/24 10:53:19;;;;;;;41.42;20.83;;;;;;;9.79;56.07;101012.41;4873134;28;98028;-81
2021/03/24 10:56:12;;;;;;;40.28;21.02;;;;;;;9.85;55.99;101011.44;4868996;28;96801;-81
2021/03/24 10:58:59;;;;;;;49.15;21.33;;;;;;;9.97;55.15;101004.16;4861894;28;97486;-82
2021/03/24 11:01:30;;;;;;;35.17;20.27;;;;;;;10.05;55.70;101008.41;4863261;28;98576;-82
2021/03/24 11:04:22;;;;;;;30.73;21.13;;;;;;;10.06;54.96;101004.88;4854579;28;101991;-82
2021/03/24 11:07:22;;;;;;;36.10;21.20;;;;;;;10.20;55.11;101001.06;4864038;28;98388;-82
2021/03/24 11:09:48;;;;;;;34.58;22.05;;;;;;;10.24;54.69;101003.59;4864020;28;98000;-82
2021/03/24 11:12:16;;;;;;;35.17;21.23;;;;;;;10.13;54.48;100999.47;4877741;28;98511;-82
2021/03/24 11:15:14;;;;;;;26.95;20.33;;;;;;;10.13;54.46;100996.00;4877923;28;97436;-82
2021/03/24 11:17:42;;;;;;;28.55;19.85;;;;;;;10.31;54.46;100993.00;4856565;28;97530;-82
2021/03/24 11:20:36;;;;;;;33.63;21.45;;;;;;;10.41;53.75;100986.66;4852798;28;96883;-82
2021/03/24 11:23:03;;;;;;;31.05;20.35;;;;;;;10.34;54.17;100990.28;4869485;28;101544;-82
2021/03/24 11:25:58;;;;;;;35.28;20.58;;;;;;;10.37;53.60;100984.13;4836215;28;99121;-81
2021/03/24 11:28:38;;;;;;;30.58;21.27;;;;;;;10.28;52.97;100979.94;4852870;28;98568;-81
2021/03/24 11:31:11;;;;;;;30.65;20.73;;;;;;;10.34;52.40;100981.56;4852991;28;97175;-81
2021/03/24 11:34:03;;;;;;;30.00;20.42;;;;;;;10.39;52.53;100987.59;4868040;28;98016;-81
2021/03/24 11:36:30;;;;;;;;;;;;;;;10.30;53.15;100979.91;4866997;28;101226;-80
2021/03/24 11:39:14;;;;;;;31.67;19.45;;;;;;;10.35;53.17;100978.88;4873077;28;96960;-78
2021/03/24 11:41:40;;;;;;;36.92;22.27;;;;;;;10.36;53.39;100983.25;4869079;28;96838;-80
2021/03/24 11:44:12;;;;;;;32.78;20.67;;;;;;;10.40;52.97;100978.81;4885976;28;98168;-77
2021/03/24 11:46:41;;;;;;;31.23;20.90;;;;;;;10.41;52.84;100976.16;4855475;28;101106;-80
2021/03/24 11:49:16;;;;;;;33.85;21.50;;;;;;;10.44;53.03;100972.56;4854394;28;96979;-78
2021/03/24 11:52:18;;;;;;;38.60;21.85;;;;;;;10.43;52.57;100982.22;4855348;28;96861;-80
2021/03/24 11:54:47;;;;;;;35.30;21.48;;;;;;;10.34;52.79;100981.56;4865021;28;102039;-77
2021/03/24 11:57:21;;;;;;;31.40;19.45;;;;;;;10.42;53.31;100971.75;4859298;28;98406;-77